createdAt,value
2017-09-27T00:01:15.957Z,61.90
2017-09-27T00:03:43.652Z,63.87
2017-09-27T00:06:11.330Z,69.53
2017-09-27T00:08:39.013Z,63.90
2017-09-27T00:11:06.697Z,64.23
2017-09-27T00:13:34.383Z,69.93
2017-09-27T00:16:02.126Z,66.43
2017-09-27T00:18:29.817Z,66.60
2017-09-27T00:20:57.578Z,74.87
2017-09-27T00:23:25.265Z,64.03
2017-09-27T00:25:53.025Z,71.50
2017-09-27T00:28:20.725Z,65.83
2017-09-27T00:30:48.472Z,61.57
2017-09-27T00:33:16.178Z,73.30
2017-09-27T00:35:43.933Z,65.03
2017-09-27T00:38:11.640Z,67.23
2017-09-27T00:40:39.372Z,69.23
2017-09-27T00:43:07.137Z,61.37
2017-09-27T00:45:34.905Z,61.40
2017-09-27T00:48:02.636Z,60.87
2017-09-27T00:50:30.388Z,67.50
2017-09-27T00:52:58.107Z,69.83
2017-09-27T00:55:25.881Z,67.23
2017-09-27T00:57:53.572Z,73.13
2017-09-27T01:00:21.308Z,72.43
2017-09-27T01:02:49.007Z,66.07
2017-09-27T01:05:16.755Z,65.77
2017-09-27T01:07:44.438Z,61.53
2017-09-27T01:10:13.121Z,71.67
2017-09-27T01:12:40.808Z,65.93
2017-09-27T01:15:08.544Z,64.93
2017-09-27T01:17:36.242Z,70.53
2017-09-27T01:20:03.980Z,69.77
2017-09-27T01:22:31.676Z,72.20
2017-09-27T01:25:00.303Z,70.53
2017-09-27T01:27:27.992Z,69.13
2017-09-27T01:29:55.740Z,72.13
2017-09-27T01:32:23.440Z,69.97
2017-09-27T01:34:51.190Z,77.60
2017-09-27T01:37:18.904Z,70.20
2017-09-27T01:39:46.588Z,82.20
2017-09-27T01:42:14.337Z,72.07
2017-09-27T01:44:42.130Z,80.13
2017-09-27T01:47:09.867Z,68.37
2017-09-27T01:49:37.569Z,77.53
2017-09-27T01:52:05.326Z,70.10
2017-09-27T01:54:33.235Z,77.60
2017-09-27T01:57:00.984Z,79.47
2017-09-27T01:59:28.625Z,69.70
2017-09-27T02:01:56.383Z,78.73
2017-09-27T02:04:24.086Z,71.87
2017-09-27T02:06:51.764Z,75.43
2017-09-27T02:09:19.409Z,71.93
2017-09-27T02:11:47.154Z,81.30
2017-09-27T02:14:14.834Z,82.83
2017-09-27T02:16:42.585Z,83.70
2017-09-27T02:19:10.293Z,79.77
2017-09-27T02:21:38.045Z,75.60
2017-09-27T02:24:05.740Z,79.70
2017-09-27T02:26:33.520Z,80.17
2017-09-27T02:29:01.210Z,76.33
2017-09-27T02:31:28.952Z,75.63
2017-09-27T02:33:56.641Z,78.87
2017-09-27T02:36:24.411Z,76.37
2017-09-27T02:38:52.108Z,75.40
2017-09-27T02:41:19.843Z,80.97
2017-09-27T02:43:47.473Z,83.37
2017-09-27T02:46:15.214Z,93.17
2017-09-27T02:48:42.845Z,81.40
2017-09-27T02:51:10.581Z,76.97
2017-09-27T02:53:38.278Z,79.97
2017-09-27T02:56:06.004Z,78.00
2017-09-27T02:58:33.699Z,82.70
2017-09-27T03:01:01.444Z,84.50
2017-09-27T03:03:29.131Z,75.17
2017-09-27T03:05:56.862Z,76.87
2017-09-27T03:08:24.555Z,89.00
2017-09-27T03:10:52.281Z,83.27
2017-09-27T03:13:19.971Z,86.00
2017-09-27T03:15:51.163Z,81.03
2017-09-27T03:18:18.871Z,81.03
2017-09-27T03:20:46.617Z,76.47
2017-09-27T03:23:14.311Z,90.00
2017-09-27T03:25:42.001Z,77.60
2017-09-27T03:28:09.789Z,78.27
2017-09-27T03:30:37.509Z,77.63
2017-09-27T03:33:05.287Z,81.30
2017-09-27T03:35:33.009Z,78.57
2017-09-27T03:38:00.872Z,89.57
2017-09-27T03:40:28.564Z,80.60
2017-09-27T03:42:56.346Z,90.13
2017-09-27T03:45:23.977Z,87.13
2017-09-27T03:47:51.731Z,88.67
2017-09-27T03:50:19.420Z,91.77
2017-09-27T03:52:47.169Z,91.67
2017-09-27T03:55:14.863Z,87.53
2017-09-27T03:57:42.599Z,85.00
2017-09-27T04:00:10.293Z,90.90
2017-09-27T04:02:38.052Z,89.57
2017-09-27T04:05:05.684Z,90.60
2017-09-27T04:07:33.363Z,93.30
2017-09-27T04:10:00.993Z,92.63
2017-09-27T04:12:28.743Z,97.90
2017-09-27T04:14:56.442Z,88.80
2017-09-27T04:17:24.195Z,90.90
2017-09-27T04:19:51.884Z,90.17
2017-09-27T04:22:19.652Z,95.53
2017-09-27T04:24:47.287Z,89.60
2017-09-27T04:27:15.045Z,100.90
2017-09-27T04:29:42.748Z,103.13
2017-09-27T04:32:10.501Z,103.43
2017-09-27T04:34:38.148Z,98.30
2017-09-27T04:37:05.827Z,97.87
2017-09-27T04:39:33.468Z,95.87
2017-09-27T04:42:01.161Z,102.97
2017-09-27T04:44:28.813Z,102.27
2017-09-27T04:46:56.503Z,101.23
2017-09-27T04:49:24.139Z,93.97
2017-09-27T04:51:51.843Z,96.57
2017-09-27T04:54:19.493Z,101.60
2017-09-27T04:56:47.196Z,100.10
2017-09-27T04:59:14.848Z,103.03
2017-09-27T05:01:42.567Z,98.87
2017-09-27T05:04:10.220Z,95.53
2017-09-27T05:06:37.847Z,101.30
2017-09-27T05:09:05.564Z,92.30
2017-09-27T05:11:33.240Z,96.43
2017-09-27T05:14:00.951Z,101.27
2017-09-27T05:16:28.576Z,96.73
2017-09-27T05:18:56.258Z,100.97
2017-09-27T05:21:23.929Z,99.80
2017-09-27T05:23:51.613Z,98.43
2017-09-27T05:26:19.253Z,96.50
2017-09-27T05:28:46.927Z,96.73
2017-09-27T05:31:14.569Z,97.23
2017-09-27T05:33:42.256Z,97.87
2017-09-27T05:36:09.901Z,106.10
2017-09-27T05:38:37.593Z,94.63
2017-09-27T05:41:05.251Z,101.37
2017-09-27T05:43:32.957Z,93.67
2017-09-27T05:46:00.587Z,90.13
2017-09-27T05:48:28.271Z,104.97
2017-09-27T05:50:55.909Z,100.93
2017-09-27T05:53:23.588Z,93.90
2017-09-27T05:55:51.230Z,95.90
2017-09-27T05:58:18.917Z,93.67
2017-09-27T06:00:46.541Z,94.80
2017-09-27T06:03:14.247Z,97.63
2017-09-27T06:05:41.904Z,101.10
2017-09-27T06:08:09.582Z,91.77
2017-09-27T06:10:37.212Z,97.87
2017-09-27T06:13:04.895Z,98.30
2017-09-27T06:15:32.532Z,94.23
2017-09-27T06:18:00.237Z,102.87
2017-09-27T06:20:27.884Z,98.80
2017-09-27T06:22:55.570Z,98.30
2017-09-27T06:25:23.201Z,86.00
2017-09-27T06:27:50.911Z,96.67
2017-09-27T06:30:18.555Z,82.63
2017-09-27T06:32:46.259Z,82.60
2017-09-27T06:35:13.904Z,89.87
2017-09-27T06:37:41.639Z,93.20
2017-09-27T06:40:09.272Z,94.70
2017-09-27T06:42:36.897Z,98.23
2017-09-27T06:45:04.603Z,91.90
2017-09-27T06:47:32.250Z,87.87
2017-09-27T06:49:59.941Z,91.73
2017-09-27T06:52:27.576Z,97.80
2017-09-27T06:54:55.257Z,89.50
2017-09-27T06:57:22.927Z,85.53
2017-09-27T06:59:50.597Z,92.07
2017-09-27T07:02:18.227Z,84.07
2017-09-27T07:04:45.911Z,88.97
2017-09-27T07:07:13.582Z,83.67
2017-09-27T07:09:41.256Z,92.90
2017-09-27T07:12:08.901Z,83.27
2017-09-27T07:14:36.598Z,85.00
2017-09-27T07:17:04.236Z,84.50
2017-09-27T07:19:31.920Z,78.70
2017-09-27T07:21:59.551Z,87.10
2017-09-27T07:24:27.231Z,80.57
2017-09-27T07:26:54.960Z,82.47
2017-09-27T07:29:22.692Z,87.50
2017-09-27T07:31:50.364Z,73.80
2017-09-27T07:34:18.064Z,87.43
2017-09-27T07:36:45.704Z,83.47
2017-09-27T07:39:13.401Z,88.00
2017-09-27T07:41:41.042Z,84.03
2017-09-27T07:44:08.736Z,87.30
2017-09-27T07:46:36.394Z,86.00
2017-09-27T07:49:04.090Z,97.83
2017-09-27T07:54:04.685Z,87.13
2017-09-27T07:56:32.340Z,99.70
2017-09-27T07:59:00.047Z,90.00
2017-09-27T08:01:27.676Z,88.17
2017-09-27T08:03:55.349Z,88.70
2017-09-27T08:06:22.991Z,93.77
2017-09-27T08:08:50.686Z,84.97
2017-09-27T08:11:18.336Z,89.60
2017-09-27T08:13:46.174Z,93.40
2017-09-27T08:16:13.804Z,87.63
2017-09-27T08:18:41.486Z,90.00
2017-09-27T08:21:09.126Z,82.93
2017-09-27T08:23:36.823Z,84.27
2017-09-27T08:26:04.520Z,84.97
2017-09-27T08:28:32.167Z,81.53
2017-09-27T08:30:59.843Z,87.77
2017-09-27T08:33:27.492Z,88.10
2017-09-27T08:35:55.163Z,87.27
2017-09-27T08:38:22.826Z,86.33
2017-09-27T08:40:50.501Z,86.37
2017-09-27T08:43:18.120Z,94.70
2017-09-27T08:45:45.792Z,82.77
2017-09-27T08:48:13.461Z,88.43
2017-09-27T08:50:41.152Z,86.67
2017-09-27T08:53:08.835Z,87.77
2017-09-27T08:55:36.526Z,87.60
2017-09-27T08:58:04.170Z,81.37
2017-09-27T09:00:31.969Z,85.10
2017-09-27T09:02:59.613Z,83.43
2017-09-27T09:05:27.302Z,86.10
2017-09-27T09:07:54.938Z,83.63
2017-09-27T09:10:22.655Z,90.87
2017-09-27T09:12:50.302Z,82.80
2017-09-27T09:15:17.980Z,88.87
2017-09-27T09:17:45.703Z,78.40
2017-09-27T09:20:13.400Z,78.93
2017-09-27T09:22:41.050Z,83.03
2017-09-27T09:25:08.746Z,81.60
2017-09-27T09:27:36.382Z,77.67
2017-09-27T09:30:04.143Z,79.47
2017-09-27T09:32:31.787Z,84.80
2017-09-27T09:34:59.492Z,76.53
2017-09-27T09:37:27.136Z,74.93
2017-09-27T09:39:54.895Z,74.67
2017-09-27T09:42:22.581Z,73.40
2017-09-27T09:44:50.413Z,77.70
2017-09-27T09:47:18.125Z,72.57
2017-09-27T09:49:45.807Z,83.77
2017-09-27T09:52:13.520Z,67.00
2017-09-27T09:54:41.299Z,61.47
2017-09-27T09:57:09.005Z,63.70
2017-09-27T09:59:43.975Z,72.00
2017-09-27T10:02:11.959Z,71.73
2017-09-27T10:04:39.644Z,68.30
2017-09-27T10:07:07.353Z,64.07
2017-09-27T10:09:35.050Z,69.57
2017-09-27T10:12:02.728Z,69.30
2017-09-27T10:14:30.446Z,68.73
2017-09-27T10:16:58.227Z,69.17
2017-09-27T10:19:27.038Z,64.17
2017-09-27T10:21:54.723Z,66.20
2017-09-27T10:24:22.822Z,64.90
2017-09-27T10:26:54.719Z,64.63
2017-09-27T10:29:28.044Z,62.07
2017-09-27T10:31:55.732Z,55.40
2017-09-27T10:34:23.440Z,54.73
2017-09-27T10:36:51.197Z,58.43
2017-09-27T10:39:18.872Z,65.03
2017-09-27T10:41:46.626Z,54.03
2017-09-27T10:44:14.377Z,67.50
2017-09-27T10:46:42.134Z,60.80
2017-09-27T10:49:09.862Z,56.03
2017-09-27T10:51:37.545Z,66.00
2017-09-27T10:54:05.284Z,60.03
2017-09-27T10:56:33.060Z,63.57
2017-09-27T10:59:00.772Z,62.47
2017-09-27T11:01:28.514Z,61.33
2017-09-27T11:03:56.221Z,55.90
2017-09-27T11:06:23.997Z,65.10
2017-09-27T11:08:51.726Z,65.17
2017-09-27T11:11:19.496Z,67.40
2017-09-27T11:13:47.202Z,53.93
2017-09-27T11:16:14.977Z,65.60
2017-09-27T11:18:42.708Z,70.07
2017-09-27T11:21:10.489Z,67.57
2017-09-27T11:23:38.211Z,62.67
2017-09-27T11:26:05.982Z,67.10
2017-09-27T11:28:33.623Z,71.53
2017-09-27T11:31:01.397Z,69.17
2017-09-27T11:33:29.115Z,73.10
2017-09-27T11:35:56.881Z,69.63
2017-09-27T11:38:24.600Z,70.50
2017-09-27T11:40:52.403Z,70.50
2017-09-27T11:43:20.177Z,74.87
2017-09-27T11:45:47.940Z,71.50
2017-09-27T11:48:15.671Z,78.77
2017-09-27T11:50:43.434Z,72.37
2017-09-27T11:53:11.169Z,72.13
2017-09-27T11:55:38.923Z,74.70
2017-09-27T11:58:06.649Z,77.47
2017-09-27T12:00:34.376Z,73.00
2017-09-27T12:03:02.161Z,74.47
2017-09-27T12:05:29.867Z,76.87
2017-09-27T12:07:57.624Z,78.07
2017-09-27T12:10:25.338Z,67.23
2017-09-27T12:12:53.126Z,73.40
2017-09-27T12:15:20.846Z,77.27
2017-09-27T12:17:48.600Z,75.73
2017-09-27T12:20:16.310Z,66.53
2017-09-27T12:22:44.062Z,78.13
2017-09-27T12:25:11.780Z,76.17
2017-09-27T12:27:39.551Z,77.93
2017-09-27T12:30:07.257Z,77.87
2017-09-27T12:32:35.015Z,80.83
2017-09-27T12:35:02.675Z,74.13
2017-09-27T12:37:30.484Z,84.10
2017-09-27T12:39:58.245Z,82.77
2017-09-27T12:42:25.991Z,87.53
2017-09-27T12:44:53.739Z,79.17
2017-09-27T12:47:21.500Z,84.47
2017-09-27T12:49:49.234Z,82.90
2017-09-27T12:52:16.984Z,81.17
2017-09-27T12:54:44.727Z,76.97
2017-09-27T12:57:12.417Z,74.03
2017-09-27T12:59:40.156Z,93.50
2017-09-27T13:02:08.488Z,77.47
2017-09-27T13:04:36.191Z,83.80
2017-09-27T13:07:03.964Z,83.63
2017-09-27T13:09:31.676Z,81.70
2017-09-27T13:11:59.467Z,96.83
2017-09-27T13:14:27.216Z,84.00
2017-09-27T13:16:54.981Z,78.87
2017-09-27T13:19:22.701Z,82.93
2017-09-27T13:21:50.429Z,89.57
2017-09-27T13:24:18.146Z,85.10
2017-09-27T13:26:45.910Z,93.97
2017-09-27T13:29:13.641Z,91.03
2017-09-27T13:31:41.403Z,91.83
2017-09-27T13:34:09.119Z,90.20
2017-09-27T13:36:36.890Z,80.53
2017-09-27T13:39:04.647Z,85.37
2017-09-27T13:41:32.345Z,102.53
2017-09-27T13:44:00.145Z,94.93
2017-09-27T13:46:27.858Z,98.30
2017-09-27T13:48:55.633Z,91.33
2017-09-27T13:51:23.341Z,86.70
2017-09-27T13:53:51.100Z,87.60
2017-09-27T13:56:18.825Z,87.03
2017-09-27T13:58:46.593Z,92.73
2017-09-27T14:01:14.308Z,84.90
2017-09-27T14:03:42.056Z,99.60
2017-09-27T14:06:09.771Z,95.97
2017-09-27T14:08:37.526Z,102.97
2017-09-27T14:11:05.242Z,95.10
2017-09-27T14:13:33.009Z,98.10
2017-09-27T14:16:00.732Z,93.00
2017-09-27T14:18:28.510Z,86.03
2017-09-27T14:20:56.226Z,94.90
2017-09-27T14:23:24.004Z,91.40
2017-09-27T14:25:51.698Z,92.13
2017-09-27T14:28:20.490Z,87.13
2017-09-27T14:30:51.261Z,93.03
2017-09-27T14:33:23.644Z,95.53
2017-09-27T14:35:56.188Z,85.07
2017-09-27T14:38:23.881Z,86.03
2017-09-27T14:40:51.525Z,84.80
2017-09-27T14:43:19.221Z,93.40
2017-09-27T14:45:46.865Z,89.40
2017-09-27T14:48:14.560Z,88.30
2017-09-27T14:50:42.198Z,89.30
2017-09-27T14:53:09.913Z,100.27
2017-09-27T14:55:37.545Z,94.50
2017-09-27T14:58:05.303Z,92.63
2017-09-27T15:00:36.121Z,96.07
2017-09-27T15:03:04.065Z,90.00
2017-09-27T15:05:33.026Z,91.10
2017-09-27T15:08:01.370Z,80.90
2017-09-27T15:10:31.192Z,91.73
2017-09-27T15:13:01.443Z,87.93
2017-09-27T15:15:30.062Z,96.13
2017-09-27T15:17:57.750Z,94.43
2017-09-27T15:20:25.480Z,94.80
2017-09-27T15:22:53.167Z,98.20
2017-09-27T15:25:20.796Z,90.03
2017-09-27T15:27:55.685Z,91.03
2017-09-27T15:30:23.453Z,100.97
2017-09-27T15:32:51.164Z,93.90
2017-09-27T15:35:18.873Z,92.23
2017-09-27T15:37:46.659Z,97.40
2017-09-27T15:40:14.379Z,100.03
2017-09-27T15:42:42.116Z,89.63
2017-09-27T15:45:09.823Z,97.10
2017-09-27T15:47:37.552Z,91.77
2017-09-27T15:50:05.362Z,95.13
2017-09-27T15:52:33.107Z,91.80
2017-09-27T15:55:00.878Z,91.33
2017-09-27T15:57:28.537Z,91.93
2017-09-27T15:59:56.297Z,95.80
2017-09-27T16:02:24.004Z,105.87
2017-09-27T16:04:51.741Z,97.23
2017-09-27T16:07:19.458Z,100.73
2017-09-27T16:09:47.253Z,97.03
2017-09-27T16:12:14.963Z,97.73
2017-09-27T16:14:42.722Z,93.00
2017-09-27T16:17:10.407Z,93.73
2017-09-27T16:19:38.167Z,94.90
2017-09-27T16:22:05.885Z,98.53
2017-09-27T16:24:33.636Z,98.33
2017-09-27T16:27:01.340Z,97.20
2017-09-27T16:29:29.089Z,95.57
2017-09-27T16:31:56.805Z,90.60
2017-09-27T16:34:24.521Z,98.13
2017-09-27T16:36:52.164Z,96.33
2017-09-27T16:39:19.866Z,97.60
2017-09-27T16:41:47.500Z,90.40
2017-09-27T16:44:15.193Z,89.70
2017-09-27T16:46:42.859Z,83.80
2017-09-27T16:49:10.581Z,92.30
2017-09-27T16:51:38.218Z,87.50
2017-09-27T16:54:05.916Z,96.93
2017-09-27T16:56:33.561Z,95.53
2017-09-27T16:59:01.255Z,90.97
2017-09-27T17:01:28.904Z,97.13
2017-09-27T17:03:56.591Z,85.37
2017-09-27T17:06:24.224Z,87.43
2017-09-27T17:08:51.897Z,94.03
2017-09-27T17:11:19.552Z,83.77
2017-09-27T17:13:47.244Z,84.90
2017-09-27T17:16:14.883Z,86.57
2017-09-27T17:18:42.517Z,88.27
2017-09-27T17:21:10.195Z,92.27
2017-09-27T17:23:37.915Z,87.20
2017-09-27T17:26:05.688Z,92.47
2017-09-27T17:28:33.383Z,82.30
2017-09-27T17:31:01.134Z,85.43
2017-09-27T17:33:28.767Z,88.23
2017-09-27T17:35:56.537Z,91.30
2017-09-27T17:38:24.257Z,85.97
2017-09-27T17:40:52.012Z,90.60
2017-09-27T17:43:19.747Z,88.03
2017-09-27T17:45:47.492Z,88.60
2017-09-27T17:48:15.188Z,96.90
2017-09-27T17:50:42.960Z,86.00
2017-09-27T17:53:10.670Z,89.80
2017-09-27T17:55:38.432Z,100.07
2017-09-27T17:58:06.124Z,90.80
2017-09-27T18:00:33.852Z,97.00
2017-09-27T18:03:01.483Z,90.47
2017-09-27T18:08:34.107Z,93.50
2017-09-27T18:11:07.681Z,82.77
2017-09-27T18:16:35.758Z,75.07
2017-09-27T18:19:03.667Z,82.73
2017-09-27T18:21:31.572Z,89.37
2017-09-27T18:23:59.250Z,91.53
2017-09-27T18:26:27.073Z,84.83
2017-09-27T18:28:54.827Z,83.40
2017-09-27T18:31:22.614Z,85.10
2017-09-27T18:33:50.363Z,94.40
2017-09-27T18:36:18.157Z,96.57
2017-09-27T18:38:45.951Z,91.43
2017-09-27T18:41:13.767Z,99.90
2017-09-27T18:43:41.587Z,96.43
2017-09-27T18:46:09.271Z,105.10
2017-09-27T18:48:36.995Z,96.27
2017-09-27T18:51:04.766Z,100.87
2017-09-27T18:53:32.484Z,97.13
2017-09-27T18:56:00.326Z,100.77
2017-09-27T18:58:28.080Z,95.33
2017-09-27T19:00:55.857Z,96.00
2017-09-27T19:03:23.612Z,90.03
2017-09-27T19:05:51.395Z,93.73
2017-09-27T19:08:19.128Z,95.53
2017-09-27T19:10:46.884Z,98.87
2017-09-27T19:15:56.178Z,90.87
2017-09-27T19:18:23.830Z,88.77
2017-09-27T19:20:51.510Z,106.13
2017-09-27T19:23:19.181Z,88.43
2017-09-27T19:25:46.859Z,91.47
2017-09-27T19:28:21.122Z,93.97
2017-09-27T19:30:48.921Z,102.07
2017-09-27T19:33:19.291Z,96.23
2017-09-27T19:35:55.792Z,92.00
2017-09-27T19:38:23.483Z,99.47
2017-09-27T19:40:56.176Z,109.73
2017-09-27T19:43:24.146Z,109.23
2017-09-27T19:45:51.873Z,113.47
2017-09-27T19:48:19.545Z,88.97
2017-09-27T19:50:49.685Z,90.63
2017-09-27T19:53:17.313Z,95.53
2017-09-27T19:55:45.004Z,89.57
2017-09-27T19:58:12.639Z,98.80
2017-09-27T20:00:40.398Z,93.37
2017-09-27T20:03:08.089Z,111.57
2017-09-27T20:05:35.795Z,105.27
2017-09-27T20:08:03.542Z,94.27
2017-09-27T20:10:31.362Z,91.07
2017-09-27T20:12:59.140Z,107.00
2017-09-27T20:15:26.936Z,96.10
2017-09-27T20:17:54.693Z,89.30
2017-09-27T20:20:22.410Z,93.20
2017-09-27T20:22:55.069Z,85.60
2017-09-27T20:31:01.352Z,94.47
2017-09-27T20:36:33.725Z,77.70
2017-09-27T20:41:46.672Z,88.13
2017-09-27T20:47:14.339Z,78.93
2017-09-27T20:55:17.401Z,84.03
2017-09-27T20:57:52.969Z,81.97
2017-09-27T21:03:07.204Z,83.50
2017-09-27T21:05:42.895Z,72.40
2017-09-27T21:11:05.985Z,88.83
2017-09-27T21:13:49.110Z,81.47
2017-09-27T21:16:17.673Z,98.53
2017-09-27T21:18:45.306Z,74.87
2017-09-27T21:21:13.010Z,91.30
2017-09-27T21:23:40.725Z,83.27
2017-09-27T21:26:08.507Z,78.00
2017-09-27T21:28:36.281Z,78.17
2017-09-27T21:31:03.915Z,89.17
2017-09-27T21:33:31.673Z,90.77
2017-09-27T21:35:59.380Z,74.43
2017-09-27T21:38:27.119Z,91.73
2017-09-27T21:40:54.808Z,91.47
2017-09-27T21:43:22.590Z,88.10
2017-09-27T21:45:50.318Z,103.00
2017-09-27T21:48:18.067Z,89.87
2017-09-27T21:50:45.702Z,90.97
2017-09-27T21:53:13.460Z,86.57
2017-09-27T21:55:41.099Z,103.73
2017-09-27T21:58:08.835Z,98.63
2017-09-27T22:00:36.468Z,94.20
2017-09-27T22:03:04.218Z,105.83
2017-09-27T22:05:31.918Z,87.43
2017-09-27T22:07:59.683Z,86.50
2017-09-27T22:10:27.372Z,86.90
2017-09-27T22:12:55.170Z,93.40
2017-09-27T22:15:22.878Z,88.60
2017-09-27T22:17:50.616Z,90.73
2017-09-27T22:20:18.297Z,92.17
2017-09-27T22:22:46.052Z,108.73
2017-09-27T22:25:13.768Z,106.87
2017-09-27T22:27:41.510Z,87.43
2017-09-27T22:30:09.159Z,109.87
2017-09-27T22:32:36.904Z,89.90
2017-09-27T22:35:04.594Z,100.00
2017-09-27T22:37:32.346Z,79.00
2017-09-27T22:40:00.048Z,94.97
2017-09-27T22:42:27.833Z,81.37
2017-09-27T22:44:55.589Z,79.80
2017-09-27T22:47:23.324Z,79.93
2017-09-27T22:49:51.021Z,73.63
2017-09-27T22:52:18.764Z,74.73
2017-09-27T22:54:46.458Z,75.97
2017-09-27T22:57:14.204Z,83.10
2017-09-27T22:59:41.903Z,78.57
2017-09-27T23:02:09.633Z,65.73
2017-09-27T23:04:37.347Z,68.27
2017-09-27T23:07:05.091Z,77.13
2017-09-27T23:09:32.803Z,74.37
2017-09-27T23:12:00.511Z,72.40
2017-09-27T23:14:28.245Z,84.63
2017-09-27T23:16:55.953Z,65.70
2017-09-27T23:19:23.694Z,71.90
2017-09-27T23:21:51.385Z,77.30
2017-09-27T23:24:19.110Z,75.00
2017-09-27T23:26:46.811Z,86.33
2017-09-27T23:29:14.552Z,86.07
2017-09-27T23:31:42.238Z,72.23
2017-09-27T23:34:09.984Z,76.70
2017-09-27T23:36:37.680Z,75.70
2017-09-27T23:39:05.452Z,76.50
2017-09-27T23:41:33.161Z,78.20
2017-09-27T23:44:00.949Z,83.73
2017-09-27T23:46:28.657Z,75.53
2017-09-27T23:48:56.409Z,73.93
2017-09-27T23:51:24.120Z,74.70
2017-09-27T23:53:51.873Z,69.17
2017-09-27T23:56:19.571Z,76.37
2017-09-27T23:58:47.312Z,70.23
